sensor_id;sensor_type;location;lat;lon;timestamp;P1;durP1;ratioP1;P2;durP2;ratioP2
479;SDS011;226;48.606;9.096;2023-05-14T00:02:22;13.10;;;7.80;;
479;SDS011;226;48.606;9.096;2023-05-14T00:04:51;13.40;;;7.00;;
479;SDS011;226;48.606;9.096;2023-05-14T00:07:20;13.23;;;7.20;;
479;SDS011;226;48.606;9.096;2023-05-14T00:09:48;14.90;;;7.77;;
479;SDS011;226;48.606;9.096;2023-05-14T00:12:17;17.03;;;8.47;;
479;SDS011;226;48.606;9.096;2023-05-14T00:14:47;12.30;;;7.50;;
479;SDS011;226;48.606;9.096;2023-05-14T00:17:15;11.20;;;5.80;;
479;SDS011;226;48.606;9.096;2023-05-14T00:19:44;10.27;;;6.97;;
479;SDS011;226;48.606;9.096;2023-05-14T00:22:12;12.50;;;6.70;;
479;SDS011;226;48.606;9.096;2023-05-14T00:24:41;11.00;;;6.93;;
479;SDS011;226;48.606;9.096;2023-05-14T00:27:10;9.80;;;6.20;;
479;SDS011;226;48.606;9.096;2023-05-14T00:29:38;14.17;;;6.63;;
479;SDS011;226;48.606;9.096;2023-05-14T00:32:08;13.57;;;7.17;;
479;SDS011;226;48.606;9.096;2023-05-14T00:34:36;9.67;;;6.83;;
479;SDS011;226;48.606;9.096;2023-05-14T00:37:05;12.93;;;7.67;;
479;SDS011;226;48.606;9.096;2023-05-14T00:39:33;13.17;;;6.60;;
479;SDS011;226;48.606;9.096;2023-05-14T00:42:02;10.40;;;6.40;;
479;SDS011;226;48.606;9.096;2023-05-14T00:44:30;12.17;;;6.63;;
479;SDS011;226;48.606;9.096;2023-05-14T00:46:59;8.33;;;5.60;;
479;SDS011;226;48.606;9.096;2023-05-14T00:49:29;12.00;;;6.53;;
479;SDS011;226;48.606;9.096;2023-05-14T00:51:57;10.37;;;7.23;;
479;SDS011;226;48.606;9.096;2023-05-14T00:54:26;11.30;;;5.43;;
479;SDS011;226;48.606;9.096;2023-05-14T00:56:55;9.20;;;6.77;;
479;SDS011;226;48.606;9.096;2023-05-14T00:59:24;11.87;;;6.93;;
479;SDS011;226;48.606;9.096;2023-05-14T01:01:52;16.07;;;8.03;;
479;SDS011;226;48.606;9.096;2023-05-14T01:04:21;16.53;;;8.87;;
479;SDS011;226;48.606;9.096;2023-05-14T01:06:53;14.20;;;8.90;;
479;SDS011;226;48.606;9.096;2023-05-14T01:09:28;13.17;;;8.10;;
479;SDS011;226;48.606;9.096;2023-05-14T01:11:59;11.60;;;6.70;;
479;SDS011;226;48.606;9.096;2023-05-14T01:14:31;12.50;;;6.90;;
479;SDS011;226;48.606;9.096;2023-05-14T01:17:01;11.13;;;6.33;;
479;SDS011;226;48.606;9.096;2023-05-14T01:19:34;17.20;;;8.20;;
479;SDS011;226;48.606;9.096;2023-05-14T01:22:05;17.33;;;8.90;;
479;SDS011;226;48.606;9.096;2023-05-14T01:24:34;20.93;;;8.70;;
479;SDS011;226;48.606;9.096;2023-05-14T01:27:04;12.60;;;6.53;;
479;SDS011;226;48.606;9.096;2023-05-14T01:29:35;9.70;;;6.03;;
479;SDS011;226;48.606;9.096;2023-05-14T01:32:05;11.37;;;5.50;;
479;SDS011;226;48.606;9.096;2023-05-14T01:34:35;11.30;;;6.07;;
479;SDS011;226;48.606;9.096;2023-05-14T01:37:03;8.80;;;5.80;;
479;SDS011;226;48.606;9.096;2023-05-14T01:39:34;10.40;;;6.00;;
479;SDS011;226;48.606;9.096;2023-05-14T01:42:04;11.37;;;6.13;;
479;SDS011;226;48.606;9.096;2023-05-14T01:44:33;9.80;;;6.43;;
479;SDS011;226;48.606;9.096;2023-05-14T01:47:02;11.03;;;5.90;;
479;SDS011;226;48.606;9.096;2023-05-14T01:49:31;10.27;;;6.23;;
479;SDS011;226;48.606;9.096;2023-05-14T01:51:59;8.10;;;5.93;;
479;SDS011;226;48.606;9.096;2023-05-14T01:54:28;14.23;;;7.57;;
479;SDS011;226;48.606;9.096;2023-05-14T01:56:58;9.20;;;5.97;;
479;SDS011;226;48.606;9.096;2023-05-14T01:59:26;11.50;;;5.93;;
479;SDS011;226;48.606;9.096;2023-05-14T02:01:55;8.67;;;5.70;;
479;SDS011;226;48.606;9.096;2023-05-14T02:04:23;12.10;;;7.47;;
479;SDS011;226;48.606;9.096;2023-05-14T02:06:52;9.13;;;6.70;;
479;SDS011;226;48.606;9.096;2023-05-14T02:09:21;11.87;;;7.30;;
479;SDS011;226;48.606;9.096;2023-05-14T02:11:49;12.67;;;6.23;;
479;SDS011;226;48.606;9.096;2023-05-14T02:14:19;14.20;;;6.90;;
479;SDS011;226;48.606;9.096;2023-05-14T02:16:48;12.17;;;6.30;;
479;SDS011;226;48.606;9.096;2023-05-14T02:19:17;13.00;;;6.70;;
479;SDS011;226;48.606;9.096;2023-05-14T02:21:45;14.07;;;6.80;;
479;SDS011;226;48.606;9.096;2023-05-14T02:24:14;9.50;;;6.83;;
479;SDS011;226;48.606;9.096;2023-05-14T02:26:42;10.23;;;5.87;;
479;SDS011;226;48.606;9.096;2023-05-14T02:29:11;9.20;;;5.67;;
479;SDS011;226;48.606;9.096;2023-05-14T02:31:41;10.47;;;6.43;;
479;SDS011;226;48.606;9.096;2023-05-14T02:34:09;10.60;;;5.83;;
479;SDS011;226;48.606;9.096;2023-05-14T02:36:38;12.60;;;6.33;;
479;SDS011;226;48.606;9.096;2023-05-14T02:39:07;8.00;;;5.40;;
479;SDS011;226;48.606;9.096;2023-05-14T02:41:35;9.03;;;6.60;;
479;SDS011;226;48.606;9.096;2023-05-14T02:44:04;12.00;;;6.47;;
479;SDS011;226;48.606;9.096;2023-05-14T02:46:32;13.07;;;6.50;;
479;SDS011;226;48.606;9.096;2023-05-14T02:49:02;14.20;;;6.70;;
479;SDS011;226;48.606;9.096;2023-05-14T02:51:31;11.97;;;6.10;;
479;SDS011;226;48.606;9.096;2023-05-14T02:53:59;10.50;;;6.20;;
479;SDS011;226;48.606;9.096;2023-05-14T02:56:27;7.93;;;5.83;;
479;SDS011;226;48.606;9.096;2023-05-14T02:58:56;12.83;;;6.37;;
479;SDS011;226;48.606;9.096;2023-05-14T03:01:25;8.00;;;5.70;;
479;SDS011;226;48.606;9.096;2023-05-14T03:03:54;8.97;;;5.67;;
479;SDS011;226;48.606;9.096;2023-05-14T03:06:24;8.77;;;5.37;;
479;SDS011;226;48.606;9.096;2023-05-14T03:08:52;9.50;;;5.10;;
479;SDS011;226;48.606;9.096;2023-05-14T03:11:21;6.97;;;4.60;;
479;SDS011;226;48.606;9.096;2023-05-14T03:13:49;9.90;;;5.37;;
479;SDS011;226;48.606;9.096;2023-05-14T03:16:17;9.90;;;5.70;;
479;SDS011;226;48.606;9.096;2023-05-14T03:18:46;15.40;;;6.90;;
479;SDS011;226;48.606;9.096;2023-05-14T03:21:15;8.30;;;4.77;;
479;SDS011;226;48.606;9.096;2023-05-14T03:23:45;6.70;;;4.67;;
479;SDS011;226;48.606;9.096;2023-05-14T03:26:13;7.23;;;5.40;;
479;SDS011;226;48.606;9.096;2023-05-14T03:28:41;8.73;;;5.40;;
479;SDS011;226;48.606;9.096;2023-05-14T03:31:10;8.57;;;5.20;;
479;SDS011;226;48.606;9.096;2023-05-14T03:33:38;8.23;;;5.30;;
479;SDS011;226;48.606;9.096;2023-05-14T03:36:07;8.63;;;5.00;;
479;SDS011;226;48.606;9.096;2023-05-14T03:38:35;11.47;;;6.07;;
479;SDS011;226;48.606;9.096;2023-05-14T03:41:05;7.80;;;5.23;;
479;SDS011;226;48.606;9.096;2023-05-14T03:43:33;12.40;;;6.83;;
479;SDS011;226;48.606;9.096;2023-05-14T03:46:03;11.63;;;6.00;;
479;SDS011;226;48.606;9.096;2023-05-14T03:48:31;8.53;;;6.00;;
479;SDS011;226;48.606;9.096;2023-05-14T03:50:59;14.90;;;7.53;;
479;SDS011;226;48.606;9.096;2023-05-14T03:53:28;12.27;;;6.50;;
479;SDS011;226;48.606;9.096;2023-05-14T03:55:56;10.67;;;6.20;;
479;SDS011;226;48.606;9.096;2023-05-14T03:58:26;7.80;;;5.63;;
479;SDS011;226;48.606;9.096;2023-05-14T04:00:54;18.10;;;8.60;;
479;SDS011;226;48.606;9.096;2023-05-14T04:03:22;17.40;;;7.40;;
479;SDS011;226;48.606;9.096;2023-05-14T04:05:51;15.17;;;8.37;;
479;SDS011;226;48.606;9.096;2023-05-14T04:08:19;16.30;;;9.30;;
479;SDS011;226;48.606;9.096;2023-05-14T04:10:49;15.87;;;7.93;;
479;SDS011;226;48.606;9.096;2023-05-14T04:13:17;15.80;;;7.50;;
479;SDS011;226;48.606;9.096;2023-05-14T04:15:47;14.70;;;7.90;;
479;SDS011;226;48.606;9.096;2023-05-14T04:18:15;13.90;;;7.67;;
479;SDS011;226;48.606;9.096;2023-05-14T04:20:44;12.40;;;7.53;;
479;SDS011;226;48.606;9.096;2023-05-14T04:23:12;13.93;;;6.37;;
479;SDS011;226;48.606;9.096;2023-05-14T04:25:41;9.60;;;5.53;;
479;SDS011;226;48.606;9.096;2023-05-14T04:28:09;11.80;;;7.27;;
479;SDS011;226;48.606;9.096;2023-05-14T04:30:37;10.17;;;7.60;;
479;SDS011;226;48.606;9.096;2023-05-14T04:33:07;10.63;;;6.67;;
479;SDS011;226;48.606;9.096;2023-05-14T04:35:36;13.70;;;7.60;;
479;SDS011;226;48.606;9.096;2023-05-14T04:38:04;16.27;;;8.33;;
479;SDS011;226;48.606;9.096;2023-05-14T04:40:35;13.33;;;6.37;;
479;SDS011;226;48.606;9.096;2023-05-14T04:43:03;12.67;;;7.10;;
479;SDS011;226;48.606;9.096;2023-05-14T04:45:31;12.80;;;6.63;;
479;SDS011;226;48.606;9.096;2023-05-14T04:48:00;13.60;;;5.93;;
479;SDS011;226;48.606;9.096;2023-05-14T04:50:30;10.90;;;6.07;;
479;SDS011;226;48.606;9.096;2023-05-14T04:52:58;19.70;;;7.60;;
479;SDS011;226;48.606;9.096;2023-05-14T04:55:27;18.00;;;9.10;;
479;SDS011;226;48.606;9.096;2023-05-14T04:57:55;13.33;;;7.50;;
479;SDS011;226;48.606;9.096;2023-05-14T05:00:23;11.80;;;6.50;;
479;SDS011;226;48.606;9.096;2023-05-14T05:02:52;13.00;;;6.17;;
479;SDS011;226;48.606;9.096;2023-05-14T05:05:22;12.03;;;7.00;;
479;SDS011;226;48.606;9.096;2023-05-14T05:07:52;14.63;;;7.53;;
479;SDS011;226;48.606;9.096;2023-05-14T05:10:21;15.30;;;8.20;;
479;SDS011;226;48.606;9.096;2023-05-14T05:12:50;14.73;;;7.60;;
479;SDS011;226;48.606;9.096;2023-05-14T05:15:18;16.10;;;7.83;;
479;SDS011;226;48.606;9.096;2023-05-14T05:17:46;13.33;;;7.83;;
479;SDS011;226;48.606;9.096;2023-05-14T05:20:15;17.70;;;7.60;;
479;SDS011;226;48.606;9.096;2023-05-14T05:22:44;14.07;;;7.07;;
479;SDS011;226;48.606;9.096;2023-05-14T05:25:13;14.10;;;7.40;;
479;SDS011;226;48.606;9.096;2023-05-14T05:27:42;13.33;;;7.57;;
479;SDS011;226;48.606;9.096;2023-05-14T05:30:10;16.30;;;7.87;;
479;SDS011;226;48.606;9.096;2023-05-14T05:32:39;14.60;;;7.20;;
479;SDS011;226;48.606;9.096;2023-05-14T05:35:08;12.53;;;6.67;;
479;SDS011;226;48.606;9.096;2023-05-14T05:37:36;10.80;;;6.53;;
479;SDS011;226;48.606;9.096;2023-05-14T05:40:05;13.57;;;7.33;;
479;SDS011;226;48.606;9.096;2023-05-14T05:42:35;14.80;;;7.67;;
479;SDS011;226;48.606;9.096;2023-05-14T05:45:04;16.23;;;8.53;;
479;SDS011;226;48.606;9.096;2023-05-14T05:47:33;16.10;;;8.13;;
479;SDS011;226;48.606;9.096;2023-05-14T05:50:01;9.97;;;6.70;;
479;SDS011;226;48.606;9.096;2023-05-14T05:52:30;13.80;;;6.10;;
479;SDS011;226;48.606;9.096;2023-05-14T05:54:58;12.93;;;7.20;;
479;SDS011;226;48.606;9.096;2023-05-14T05:57:27;14.37;;;7.33;;
479;SDS011;226;48.606;9.096;2023-05-14T05:59:57;13.27;;;7.63;;
479;SDS011;226;48.606;9.096;2023-05-14T06:02:25;12.23;;;6.97;;
479;SDS011;226;48.606;9.096;2023-05-14T06:04:54;18.87;;;8.67;;
479;SDS011;226;48.606;9.096;2023-05-14T06:07:22;17.00;;;8.17;;
479;SDS011;226;48.606;9.096;2023-05-14T06:09:50;18.67;;;7.97;;
479;SDS011;226;48.606;9.096;2023-05-14T06:12:19;12.37;;;7.97;;
479;SDS011;226;48.606;9.096;2023-05-14T06:14:47;13.30;;;6.40;;
479;SDS011;226;48.606;9.096;2023-05-14T06:17:18;17.07;;;7.77;;
479;SDS011;226;48.606;9.096;2023-05-14T06:19:46;16.80;;;7.40;;
479;SDS011;226;48.606;9.096;2023-05-14T06:22:14;19.03;;;7.67;;
479;SDS011;226;48.606;9.096;2023-05-14T06:24:43;17.57;;;7.97;;
479;SDS011;226;48.606;9.096;2023-05-14T06:27:11;17.43;;;8.70;;
479;SDS011;226;48.606;9.096;2023-05-14T06:29:40;25.27;;;7.40;;
479;SDS011;226;48.606;9.096;2023-05-14T06:32:08;14.43;;;8.27;;
479;SDS011;226;48.606;9.096;2023-05-14T06:34:42;14.63;;;9.47;;
479;SDS011;226;48.606;9.096;2023-05-14T06:37:10;16.13;;;7.70;;
479;SDS011;226;48.606;9.096;2023-05-14T06:39:38;12.90;;;7.27;;
479;SDS011;226;48.606;9.096;2023-05-14T06:42:11;16.50;;;7.20;;
479;SDS011;226;48.606;9.096;2023-05-14T06:44:40;20.90;;;8.00;;
479;SDS011;226;48.606;9.096;2023-05-14T06:47:08;12.90;;;6.70;;
479;SDS011;226;48.606;9.096;2023-05-14T06:49:36;15.90;;;7.27;;
479;SDS011;226;48.606;9.096;2023-05-14T06:52:06;13.40;;;8.30;;
479;SDS011;226;48.606;9.096;2023-05-14T06:54:35;14.03;;;7.70;;
479;SDS011;226;48.606;9.096;2023-05-14T06:57:03;13.60;;;7.67;;
479;SDS011;226;48.606;9.096;2023-05-14T06:59:31;14.47;;;8.10;;
479;SDS011;226;48.606;9.096;2023-05-14T07:02:00;15.10;;;7.67;;
479;SDS011;226;48.606;9.096;2023-05-14T07:04:28;19.93;;;8.00;;
479;SDS011;226;48.606;9.096;2023-05-14T07:06:57;18.07;;;7.43;;
479;SDS011;226;48.606;9.096;2023-05-14T07:09:26;14.57;;;7.27;;
479;SDS011;226;48.606;9.096;2023-05-14T07:11:55;13.60;;;7.57;;
479;SDS011;226;48.606;9.096;2023-05-14T07:14:23;15.97;;;7.30;;
479;SDS011;226;48.606;9.096;2023-05-14T07:16:52;12.50;;;7.40;;
479;SDS011;226;48.606;9.096;2023-05-14T07:19:20;12.63;;;6.83;;
479;SDS011;226;48.606;9.096;2023-05-14T07:21:48;17.23;;;7.57;;
479;SDS011;226;48.606;9.096;2023-05-14T07:24:17;10.90;;;7.07;;
479;SDS011;226;48.606;9.096;2023-05-14T07:26:46;14.70;;;6.97;;
479;SDS011;226;48.606;9.096;2023-05-14T07:29:15;16.77;;;8.40;;
479;SDS011;226;48.606;9.096;2023-05-14T07:31:43;20.50;;;8.10;;
479;SDS011;226;48.606;9.096;2023-05-14T07:34:11;11.30;;;6.53;;
479;SDS011;226;48.606;9.096;2023-05-14T07:36:40;13.00;;;7.50;;
479;SDS011;226;48.606;9.096;2023-05-14T07:39:08;14.70;;;7.70;;
479;SDS011;226;48.606;9.096;2023-05-14T07:41:37;18.80;;;9.57;;
479;SDS011;226;48.606;9.096;2023-05-14T07:44:06;19.40;;;7.70;;
479;SDS011;226;48.606;9.096;2023-05-14T07:46:35;18.10;;;7.53;;
479;SDS011;226;48.606;9.096;2023-05-14T07:49:03;12.13;;;6.83;;
479;SDS011;226;48.606;9.096;2023-05-14T07:51:31;17.87;;;8.17;;
479;SDS011;226;48.606;9.096;2023-05-14T07:54:00;15.07;;;8.47;;
479;SDS011;226;48.606;9.096;2023-05-14T07:56:28;11.37;;;6.13;;
479;SDS011;226;48.606;9.096;2023-05-14T07:58:56;13.13;;;6.90;;
479;SDS011;226;48.606;9.096;2023-05-14T08:01:26;14.97;;;8.13;;
479;SDS011;226;48.606;9.096;2023-05-14T08:03:55;16.70;;;7.83;;
479;SDS011;226;48.606;9.096;2023-05-14T08:06:23;19.77;;;8.73;;
479;SDS011;226;48.606;9.096;2023-05-14T08:08:52;19.33;;;8.90;;
479;SDS011;226;48.606;9.096;2023-05-14T08:11:21;22.20;;;8.20;;
479;SDS011;226;48.606;9.096;2023-05-14T08:13:49;15.53;;;8.33;;
479;SDS011;226;48.606;9.096;2023-05-14T08:16:18;14.93;;;8.20;;
479;SDS011;226;48.606;9.096;2023-05-14T08:18:47;17.93;;;8.33;;
479;SDS011;226;48.606;9.096;2023-05-14T08:21:16;20.80;;;9.30;;
479;SDS011;226;48.606;9.096;2023-05-14T08:23:44;17.97;;;8.50;;
479;SDS011;226;48.606;9.096;2023-05-14T08:26:13;17.60;;;9.97;;
479;SDS011;226;48.606;9.096;2023-05-14T08:28:41;22.20;;;8.67;;
479;SDS011;226;48.606;9.096;2023-05-14T08:31:09;23.90;;;9.60;;
479;SDS011;226;48.606;9.096;2023-05-14T08:33:39;18.43;;;8.33;;
479;SDS011;226;48.606;9.096;2023-05-14T08:36:09;14.00;;;7.10;;
479;SDS011;226;48.606;9.096;2023-05-14T08:38:38;16.30;;;8.90;;
479;SDS011;226;48.606;9.096;2023-05-14T08:41:07;17.40;;;8.93;;
479;SDS011;226;48.606;9.096;2023-05-14T08:43:40;23.53;;;9.60;;
479;SDS011;226;48.606;9.096;2023-05-14T08:46:12;18.17;;;8.90;;
479;SDS011;226;48.606;9.096;2023-05-14T08:48:41;18.80;;;8.40;;
479;SDS011;226;48.606;9.096;2023-05-14T08:51:12;24.33;;;9.40;;
479;SDS011;226;48.606;9.096;2023-05-14T08:53:40;14.23;;;7.23;;
479;SDS011;226;48.606;9.096;2023-05-14T08:56:09;14.83;;;7.77;;
479;SDS011;226;48.606;9.096;2023-05-14T08:58:38;16.27;;;9.20;;
479;SDS011;226;48.606;9.096;2023-05-14T09:01:06;20.20;;;10.17;;
479;SDS011;226;48.606;9.096;2023-05-14T09:03:35;13.77;;;7.57;;
479;SDS011;226;48.606;9.096;2023-05-14T09:06:04;15.10;;;7.70;;
479;SDS011;226;48.606;9.096;2023-05-14T09:08:34;17.90;;;9.97;;
479;SDS011;226;48.606;9.096;2023-05-14T09:11:04;19.97;;;8.20;;
479;SDS011;226;48.606;9.096;2023-05-14T09:13:32;17.80;;;8.73;;
479;SDS011;226;48.606;9.096;2023-05-14T09:16:03;15.87;;;8.20;;
479;SDS011;226;48.606;9.096;2023-05-14T09:18:34;16.90;;;8.07;;
479;SDS011;226;48.606;9.096;2023-05-14T09:21:02;18.03;;;7.73;;
479;SDS011;226;48.606;9.096;2023-05-14T09:23:31;15.07;;;5.97;;
479;SDS011;226;48.606;9.096;2023-05-14T09:26:04;16.20;;;8.53;;
479;SDS011;226;48.606;9.096;2023-05-14T09:28:32;14.87;;;7.50;;
479;SDS011;226;48.606;9.096;2023-05-14T09:31:00;22.70;;;11.00;;
479;SDS011;226;48.606;9.096;2023-05-14T09:33:29;23.00;;;9.70;;
479;SDS011;226;48.606;9.096;2023-05-14T09:35:58;14.03;;;7.93;;
479;SDS011;226;48.606;9.096;2023-05-14T09:38:27;14.23;;;7.40;;
479;SDS011;226;48.606;9.096;2023-05-14T09:40:56;15.80;;;8.10;;
479;SDS011;226;48.606;9.096;2023-05-14T09:43:25;22.17;;;9.03;;
479;SDS011;226;48.606;9.096;2023-05-14T09:45:54;16.83;;;9.50;;
479;SDS011;226;48.606;9.096;2023-05-14T09:48:22;17.53;;;7.53;;
479;SDS011;226;48.606;9.096;2023-05-14T09:50:50;12.90;;;7.00;;
479;SDS011;226;48.606;9.096;2023-05-14T09:53:19;14.07;;;7.20;;
479;SDS011;226;48.606;9.096;2023-05-14T09:55:47;9.37;;;5.70;;
479;SDS011;226;48.606;9.096;2023-05-14T09:58:16;22.03;;;7.90;;
479;SDS011;226;48.606;9.096;2023-05-14T10:00:45;13.17;;;6.47;;
479;SDS011;226;48.606;9.096;2023-05-14T10:03:14;12.20;;;5.33;;
479;SDS011;226;48.606;9.096;2023-05-14T10:05:45;7.70;;;5.47;;
479;SDS011;226;48.606;9.096;2023-05-14T10:08:18;12.70;;;6.60;;
479;SDS011;226;48.606;9.096;2023-05-14T10:10:49;9.63;;;6.80;;
479;SDS011;226;48.606;9.096;2023-05-14T10:13:19;10.40;;;5.33;;
479;SDS011;226;48.606;9.096;2023-05-14T10:15:51;9.10;;;6.80;;
479;SDS011;226;48.606;9.096;2023-05-14T10:18:22;13.97;;;7.67;;
479;SDS011;226;48.606;9.096;2023-05-14T10:20:55;11.00;;;6.60;;
479;SDS011;226;48.606;9.096;2023-05-14T10:23:24;10.53;;;6.40;;
479;SDS011;226;48.606;9.096;2023-05-14T10:25:52;9.50;;;6.17;;
479;SDS011;226;48.606;9.096;2023-05-14T10:28:21;10.77;;;5.43;;
479;SDS011;226;48.606;9.096;2023-05-14T10:30:51;10.73;;;6.00;;
479;SDS011;226;48.606;9.096;2023-05-14T10:33:19;11.27;;;6.50;;
479;SDS011;226;48.606;9.096;2023-05-14T10:35:51;10.13;;;5.90;;
479;SDS011;226;48.606;9.096;2023-05-14T10:38:22;9.20;;;5.27;;
479;SDS011;226;48.606;9.096;2023-05-14T10:40:54;11.03;;;5.73;;
479;SDS011;226;48.606;9.096;2023-05-14T10:43:23;10.73;;;5.50;;
479;SDS011;226;48.606;9.096;2023-05-14T10:45:53;8.70;;;5.10;;
479;SDS011;226;48.606;9.096;2023-05-14T10:48:22;13.47;;;6.70;;
479;SDS011;226;48.606;9.096;2023-05-14T10:50:51;8.70;;;5.30;;
479;SDS011;226;48.606;9.096;2023-05-14T10:53:20;16.17;;;6.23;;
479;SDS011;226;48.606;9.096;2023-05-14T10:55:57;11.40;;;5.40;;
479;SDS011;226;48.606;9.096;2023-05-14T10:58:25;10.97;;;5.53;;
479;SDS011;226;48.606;9.096;2023-05-14T11:00:56;9.97;;;5.13;;
479;SDS011;226;48.606;9.096;2023-05-14T11:03:27;14.93;;;6.53;;
479;SDS011;226;48.606;9.096;2023-05-14T11:05:56;9.33;;;6.13;;
479;SDS011;226;48.606;9.096;2023-05-14T11:08:24;11.50;;;5.77;;
479;SDS011;226;48.606;9.096;2023-05-14T11:10:54;7.40;;;4.83;;
479;SDS011;226;48.606;9.096;2023-05-14T11:13:23;9.50;;;5.40;;
479;SDS011;226;48.606;9.096;2023-05-14T11:15:53;8.20;;;4.90;;
479;SDS011;226;48.606;9.096;2023-05-14T11:18:26;7.60;;;4.40;;
479;SDS011;226;48.606;9.096;2023-05-14T11:20:56;7.63;;;4.20;;
479;SDS011;226;48.606;9.096;2023-05-14T11:23:25;6.23;;;4.60;;
479;SDS011;226;48.606;9.096;2023-05-14T11:25:55;6.03;;;3.83;;
479;SDS011;226;48.606;9.096;2023-05-14T11:28:34;6.77;;;4.27;;
479;SDS011;226;48.606;9.096;2023-05-14T11:38:31;5.67;;;3.90;;
479;SDS011;226;48.606;9.096;2023-05-14T11:41:12;6.17;;;4.03;;
479;SDS011;226;48.606;9.096;2023-05-14T11:44:01;6.93;;;4.43;;
479;SDS011;226;48.606;9.096;2023-05-14T11:55:55;12.10;;;5.10;;
479;SDS011;226;48.606;9.096;2023-05-14T12:17:01;5.90;;;3.57;;
479;SDS011;226;48.606;9.096;2023-05-14T12:26:14;7.77;;;3.80;;
479;SDS011;226;48.606;9.096;2023-05-14T12:29:50;4.40;;;3.60;;
479;SDS011;226;48.606;9.096;2023-05-14T12:32:28;7.43;;;3.97;;
479;SDS011;226;48.606;9.096;2023-05-14T12:35:19;3.60;;;3.03;;
479;SDS011;226;48.606;9.096;2023-05-14T12:37:48;3.27;;;2.97;;
479;SDS011;226;48.606;9.096;2023-05-14T12:43:30;9.10;;;4.50;;
479;SDS011;226;48.606;9.096;2023-05-14T12:46:24;6.97;;;4.67;;
479;SDS011;226;48.606;9.096;2023-05-14T12:56:00;5.57;;;3.40;;
479;SDS011;226;48.606;9.096;2023-05-14T13:01:47;6.57;;;4.23;;
479;SDS011;226;48.606;9.096;2023-05-14T13:04:38;5.17;;;3.83;;
479;SDS011;226;48.606;9.096;2023-05-14T13:07:25;7.70;;;4.23;;
479;SDS011;226;48.606;9.096;2023-05-14T13:10:26;6.33;;;4.33;;
479;SDS011;226;48.606;9.096;2023-05-14T13:16:30;5.30;;;4.17;;
479;SDS011;226;48.606;9.096;2023-05-14T13:19:17;17.77;;;8.17;;
479;SDS011;226;48.606;9.096;2023-05-14T13:22:06;5.20;;;4.37;;
479;SDS011;226;48.606;9.096;2023-05-14T13:28:02;6.90;;;4.27;;
479;SDS011;226;48.606;9.096;2023-05-14T13:30:42;8.80;;;4.87;;
479;SDS011;226;48.606;9.096;2023-05-14T13:34:09;8.80;;;5.23;;
479;SDS011;226;48.606;9.096;2023-05-14T13:36:46;5.70;;;4.27;;
479;SDS011;226;48.606;9.096;2023-05-14T13:39:25;8.63;;;5.13;;
479;SDS011;226;48.606;9.096;2023-05-14T13:42:21;6.57;;;5.00;;
479;SDS011;226;48.606;9.096;2023-05-14T13:44:49;4.47;;;3.60;;
479;SDS011;226;48.606;9.096;2023-05-14T13:47:41;3.50;;;3.17;;
479;SDS011;226;48.606;9.096;2023-05-14T13:50:34;4.87;;;3.07;;
479;SDS011;226;48.606;9.096;2023-05-14T13:53:02;4.13;;;3.40;;
479;SDS011;226;48.606;9.096;2023-05-14T13:56:18;4.57;;;3.17;;
479;SDS011;226;48.606;9.096;2023-05-14T13:58:47;5.07;;;3.20;;
479;SDS011;226;48.606;9.096;2023-05-14T14:01:21;5.43;;;2.70;;
479;SDS011;226;48.606;9.096;2023-05-14T14:04:22;5.43;;;3.13;;
479;SDS011;226;48.606;9.096;2023-05-14T14:07:05;6.13;;;3.83;;
479;SDS011;226;48.606;9.096;2023-05-14T14:15:58;2.90;;;2.50;;
479;SDS011;226;48.606;9.096;2023-05-14T14:19:10;3.80;;;3.37;;
479;SDS011;226;48.606;9.096;2023-05-14T14:28:33;6.20;;;4.27;;
479;SDS011;226;48.606;9.096;2023-05-14T14:31:16;7.00;;;4.23;;
479;SDS011;226;48.606;9.096;2023-05-14T14:33:44;4.50;;;3.93;;
479;SDS011;226;48.606;9.096;2023-05-14T14:36:12;6.40;;;4.80;;
479;SDS011;226;48.606;9.096;2023-05-14T14:38:50;4.20;;;3.83;;
479;SDS011;226;48.606;9.096;2023-05-14T14:41:47;6.90;;;3.97;;
479;SDS011;226;48.606;9.096;2023-05-14T14:44:38;6.17;;;4.50;;
479;SDS011;226;48.606;9.096;2023-05-14T14:53:51;5.73;;;4.00;;
479;SDS011;226;48.606;9.096;2023-05-14T14:56:53;5.60;;;3.73;;
479;SDS011;226;48.606;9.096;2023-05-14T15:02:31;9.30;;;4.60;;
479;SDS011;226;48.606;9.096;2023-05-14T15:08:33;7.53;;;4.27;;
479;SDS011;226;48.606;9.096;2023-05-14T15:14:03;5.43;;;4.10;;
479;SDS011;226;48.606;9.096;2023-05-14T15:20:14;8.70;;;3.33;;
479;SDS011;226;48.606;9.096;2023-05-14T15:22:55;3.77;;;3.03;;
479;SDS011;226;48.606;9.096;2023-05-14T15:25:44;4.00;;;2.90;;
479;SDS011;226;48.606;9.096;2023-05-14T15:28:24;5.07;;;3.50;;
479;SDS011;226;48.606;9.096;2023-05-14T15:31:20;2.67;;;2.40;;
479;SDS011;226;48.606;9.096;2023-05-14T15:33:58;4.37;;;2.73;;
479;SDS011;226;48.606;9.096;2023-05-14T15:42:38;2.43;;;2.23;;
479;SDS011;226;48.606;9.096;2023-05-14T15:45:31;3.10;;;2.70;;
479;SDS011;226;48.606;9.096;2023-05-14T15:48:08;3.10;;;2.27;;
479;SDS011;226;48.606;9.096;2023-05-14T15:50:40;4.93;;;3.20;;
479;SDS011;226;48.606;9.096;2023-05-14T16:00:10;3.13;;;2.80;;
479;SDS011;226;48.606;9.096;2023-05-14T16:05:41;3.50;;;2.70;;
479;SDS011;226;48.606;9.096;2023-05-14T16:08:10;6.63;;;2.90;;
479;SDS011;226;48.606;9.096;2023-05-14T16:10:38;3.83;;;3.00;;
479;SDS011;226;48.606;9.096;2023-05-14T16:13:07;3.97;;;3.03;;
479;SDS011;226;48.606;9.096;2023-05-14T16:15:36;3.73;;;2.90;;
479;SDS011;226;48.606;9.096;2023-05-14T16:18:06;4.67;;;2.73;;
479;SDS011;226;48.606;9.096;2023-05-14T16:20:35;3.50;;;2.63;;
479;SDS011;226;48.606;9.096;2023-05-14T16:23:03;2.80;;;2.30;;
479;SDS011;226;48.606;9.096;2023-05-14T16:25:31;2.17;;;2.07;;
479;SDS011;226;48.606;9.096;2023-05-14T16:28:00;3.03;;;2.10;;
479;SDS011;226;48.606;9.096;2023-05-14T16:30:28;2.83;;;2.43;;
479;SDS011;226;48.606;9.096;2023-05-14T16:32:58;2.10;;;1.90;;
479;SDS011;226;48.606;9.096;2023-05-14T16:35:26;3.70;;;2.80;;
479;SDS011;226;48.606;9.096;2023-05-14T16:37:55;3.77;;;2.47;;
479;SDS011;226;48.606;9.096;2023-05-14T16:40:23;2.10;;;2.00;;
479;SDS011;226;48.606;9.096;2023-05-14T16:42:52;3.07;;;2.63;;
479;SDS011;226;48.606;9.096;2023-05-14T16:45:20;2.97;;;2.53;;
479;SDS011;226;48.606;9.096;2023-05-14T16:47:49;4.87;;;2.90;;
479;SDS011;226;48.606;9.096;2023-05-14T16:50:19;3.80;;;2.90;;
479;SDS011;226;48.606;9.096;2023-05-14T16:52:47;2.77;;;2.50;;
479;SDS011;226;48.606;9.096;2023-05-14T16:55:15;3.40;;;2.90;;
479;SDS011;226;48.606;9.096;2023-05-14T16:57:44;3.30;;;2.50;;
479;SDS011;226;48.606;9.096;2023-05-14T17:00:13;3.93;;;2.67;;
479;SDS011;226;48.606;9.096;2023-05-14T17:02:41;3.13;;;2.90;;
479;SDS011;226;48.606;9.096;2023-05-14T17:05:10;4.63;;;2.93;;
479;SDS011;226;48.606;9.096;2023-05-14T17:07:40;4.00;;;2.77;;
479;SDS011;226;48.606;9.096;2023-05-14T17:10:08;3.83;;;2.60;;
479;SDS011;226;48.606;9.096;2023-05-14T17:12:37;5.63;;;3.07;;
479;SDS011;226;48.606;9.096;2023-05-14T17:15:06;4.37;;;2.70;;
479;SDS011;226;48.606;9.096;2023-05-14T17:17:34;3.70;;;2.20;;
479;SDS011;226;48.606;9.096;2023-05-14T17:20:03;3.60;;;3.00;;
479;SDS011;226;48.606;9.096;2023-05-14T17:22:32;3.70;;;3.20;;
479;SDS011;226;48.606;9.096;2023-05-14T17:25:02;3.50;;;2.80;;
479;SDS011;226;48.606;9.096;2023-05-14T17:27:31;4.83;;;3.70;;
479;SDS011;226;48.606;9.096;2023-05-14T17:30:00;3.03;;;2.67;;
479;SDS011;226;48.606;9.096;2023-05-14T17:32:28;4.53;;;2.67;;
479;SDS011;226;48.606;9.096;2023-05-14T17:34:57;6.37;;;3.60;;
479;SDS011;226;48.606;9.096;2023-05-14T17:37:25;5.10;;;3.27;;
479;SDS011;226;48.606;9.096;2023-05-14T17:39:54;4.37;;;3.53;;
479;SDS011;226;48.606;9.096;2023-05-14T17:42:23;10.50;;;4.17;;
479;SDS011;226;48.606;9.096;2023-05-14T17:44:52;4.50;;;3.10;;
479;SDS011;226;48.606;9.096;2023-05-14T17:47:20;5.07;;;3.23;;
479;SDS011;226;48.606;9.096;2023-05-14T17:49:48;6.07;;;3.90;;
479;SDS011;226;48.606;9.096;2023-05-14T17:52:17;4.53;;;3.67;;
479;SDS011;226;48.606;9.096;2023-05-14T17:54:46;4.80;;;4.20;;